FW1655 Weather Reports


Display with metric or nautical units.
time (UTC)temp
F
wind
direction
speed
MPH
gust
MPH
rain 1hr
in
rain 24hr
in
rain mn
in
humidity
%
barometer
mb
20180625120538 65 20 0.0 7.0 0.00 1.05 0.85 100 1019.4
20180625114934 65 359 0.0 1.0 0.00 1.05 0.85 100 1019.4
20180625113433 64 11 0.0 3.0 0.00 1.05 0.85 100 1019.4
20180625111932 64 329 0.0 1.0 0.00 1.05 0.85 100 1019.4
20180625110432 64 352 0.0 5.0 0.00 1.05 0.85 100 1019.4
20180625104932 63 23 0.0 2.0 0.00 1.05 0.85 100 1019.4
20180625103431 63 64 0.0 4.0 0.00 1.05 0.85 100 1019.4
20180625101931 63 62 0.0 1.0 0.00 1.05 0.85 100 1019.4
20180625100433 63 27 0.0 1.0 0.00 1.05 0.85 100 1019.4
20180625094931 0 0.0 0.0 0.00 1.05 0.85 1019.4
20180625093427 0 0.0 0.0 0.00 1.05 0.85 1019.4
20180625091929 0 0.0 0.0 0.00 1.05 0.85 1019.4
20180625090425 0 0.0 0.0 0.00 1.05 0.85 1019.4
20180625084920 0 0.0 0.0 0.00 1.05 0.85 1019.4
20180625083416 0 0.0 0.0 0.00 1.05 0.85 1019.4
20180625081912 0 0.0 0.0 0.00 1.05 0.85 1019.4
20180625080407 0 0.0 0.0 0.00 1.05 0.85 1019.4
20180625074903 0 0.0 0.0 0.00 1.05 0.85 1019.4
20180625073358 0 0.0 0.0 0.00 1.05 0.85 1019.4
20180625071854 0 0.0 0.0 0.04 1.05 0.85 1019.4
20180625070350 0 0.0 0.0 0.08 1.05 0.85 1019.4
20180625064847 65 355 0.0 3.0 0.12 1.05 0.85 100 1019.4
20180625063344 66 18 0.0 1.0 0.48 1.05 0.85 100 1019.4
20180625061843 66 319 0.0 0.0 0.45 1.01 0.81 100 1019.4
20180625060342 67 246 0.0 0.0 0.41 0.97 0.77 100 1019.4
20180625054840 68 328 0.0 0.0 0.37 0.93 0.73 100 1019.4
20180625053334 69 339 0.0 0.0 0.26 0.56 0.37 100 1019.4
20180625051834 69 197 0.0 0.0 0.32 0.56 0.36 100 1019.4
20180625050333 69 197 0.0 0.0 0.35 0.56 0.36 100 1019.4
20180625044833 69 203 0.0 1.0 0.38 0.56 0.36 100 1019.4
20180625043330 69 230 0.0 0.0 0.12 0.30 0.10 100 1019.4
20180625041832 69 212 0.0 0.0 0.06 0.24 0.04 100 1019.4
20180625040329 69 177 0.0 0.0 0.03 0.21 0.01 100 1019.4
20180625034828 70 170 0.0 0.0 0.00 0.18 0.18 100 1019.4
20180625033326 70 170 0.0 0.0 0.00 0.18 0.18 100 1019.4
20180625031827 69 170 0.0 0.0 0.00 0.18 0.18 100 1019.4
20180625030326 69 170 0.0 0.0 0.00 0.18 0.18 100 1019.4
20180625024826 69 170 0.0 0.0 0.00 0.18 0.18 100 1019.4
20180625023326 69 130 0.0 0.0 0.00 0.18 0.18 100 1019.4
20180625021824 69 129 0.0 0.0 0.00 0.18 0.18 100 1019.4
20180625020324 69 129 0.0 0.0 0.00 0.18 0.18 100 1019.4
20180625014824 70 129 0.0 0.0 0.00 0.18 0.18 100 1019.4
20180625013324 70 134 0.0 0.0 0.00 0.18 0.18 100 1019.4
20180625011826 70 134 0.0 0.0 0.00 0.18 0.18 100 1019.4
20180625010324 70 134 0.0 0.0 0.01 0.18 0.18 100 1019.4
20180625004822 70 134 0.0 0.0 0.04 0.18 0.18 100 1019.4
20180625003321 69 252 0.0 0.0 0.07 0.18 0.18 100 1019.4
20180625001820 69 252 0.0 0.0 0.11 0.18 0.18 100 1019.4
20180625000320 69 252 0.0 0.0 0.15 0.17 0.17 100 1019.4
20180624234821 69 251 0.0 0.0 0.14 0.14 0.14 100 1027.9
20180624233318 70 252 0.0 0.0 0.10 0.10 0.10 100 1030.3
20180624231817 70 257 0.0 0.0 0.07 0.07 0.07 100 956.7
20180624230315 70 332 0.0 0.0 0.02 0.02 0.02 97 956.7
20180624224816 71 19 0.0 0.0 0.00 0.00 0.00 94 956.7
20180624223314 72 114 0.0 0.0 0.00 0.00 0.00 89 956.7
20180624221814 74 114 0.0 0.0 0.00 0.00 0.00 84 956.7
20180624220314 74 114 0.0 0.0 0.00 0.00 0.00 83 956.7
20180624214816 75 114 0.0 0.0 0.00 0.00 0.00 82 919.3
20180624213313 75 114 0.0 0.0 0.00 0.00 0.00 80 919.3
20180624211812 76 170 0.0 1.0 0.00 0.00 0.00 77 919.3
20180624210311 76 129 0.0 3.0 0.00 0.00 0.00 78 919.3
20180624204813 75 67 0.0 3.0 0.00 0.00 0.00 78 919.3
20180624203310 75 139 0.0 5.0 0.00 0.00 0.00 78 919.3
20180624201810 75 193 0.0 5.0 0.00 0.00 0.00 79 919.3
20180624200311 76 129 0.0 3.0 0.00 0.00 0.00 76 919.3
20180624194809 76 140 1.0 6.0 0.00 0.00 0.00 75 919.3
20180624193309 78 202 0.0 2.0 0.00 0.00 0.00 72 919.3
20180624191803 78 84 0.0 3.0 0.00 0.00 0.00 74 919.3
20180624190305 78 232 0.0 2.0 0.00 0.00 0.00 74 919.3
20180624184759 78 232 0.0 1.0 0.00 0.00 0.00 74 919.3
20180624183257 78 167 0.0 2.0 0.00 0.00 0.00 74 919.3
20180624181754 78 132 0.0 4.0 0.00 0.00 0.00 76 919.3
20180624180249 78 73 0.0 2.0 0.00 0.00 0.00 75 919.3
20180624174748 78 231 0.0 4.0 0.00 0.01 0.00 75 919.3
20180624173248 78 283 0.0 4.0 0.00 0.01 0.00 74 919.3
20180624171744 77 183 0.0 4.0 0.00 0.01 0.00 77 919.3
20180624170239 75 172 0.0 0.0 0.00 0.01 0.00 80 919.3
20180624164739 74 349 0.0 1.0 0.00 0.01 0.00 81 932.3
20180624163235 73 241 0.0 1.0 0.00 0.01 0.00 83 932.3
20180624161736 73 231 0.0 1.0 0.00 0.01 0.00 83 932.3
20180624160232 73 265 0.0 1.0 0.00 0.01 0.00 83 921.8
20180624154731 71 342 0.0 1.0 0.00 0.01 0.00 85 740.7
20180624153223 70 357 0.0 1.0 0.00 0.01 0.00 87 740.7
20180624151720 69 322 0.0 1.0 0.00 0.01 0.00 89 740.5
20180624150220 68 247 0.0 2.0 0.00 0.01 0.00 91 760.5
20180624144715 68 221 0.0 0.0 0.00 0.01 0.00 91 738.7
20180624143213 67 257 0.0 1.0 0.00 0.01 0.00 91 742.2
20180624141710 66 224 0.0 2.0 0.00 0.01 0.00 92 741.4
20180624140208 66 285 0.0 1.0 0.00 0.01 0.00 93 747.2
20180624134704 65 235 0.0 0.0 0.00 0.01 0.00 94 747.2
20180624133204 64 226 0.0 1.0 0.00 0.01 0.00 95 740.3
20180624131702 64 30 0.0 0.0 0.00 0.01 0.00 95 742.2
20180624130156 63 356 0.0 0.0 0.00 0.01 0.00 96 741.3
20180624124654 62 231 0.0 2.0 0.00 0.01 0.00 97 746.1
20180624123152 62 198 0.0 1.0 0.00 0.01 0.00 97 745.5
20180624121652 61 217 0.0 0.0 0.00 0.01 0.00 98 745.4